createdAt,value
2023-03-10T00:01:28.709Z,22.70
2023-03-10T00:03:58.350Z,20.80
2023-03-10T00:06:28.872Z,26.70
2023-03-10T00:08:56.861Z,20.50
2023-03-10T00:11:25.083Z,24.70
2023-03-10T00:13:53.056Z,25.50
2023-03-10T00:16:30.857Z,22.80
2023-03-10T00:18:58.962Z,22.20
2023-03-10T00:21:30.252Z,19.40
2023-03-10T00:23:59.304Z,21.90
2023-03-10T00:26:28.994Z,22.30
2023-03-10T00:28:57.108Z,29.10
2023-03-10T00:31:27.443Z,26.70
2023-03-10T00:33:56.396Z,21.50
2023-03-10T00:36:27.547Z,28.80
2023-03-10T00:39:01.360Z,23.70
2023-03-10T00:41:32.410Z,17.00
2023-03-10T00:44:01.082Z,20.00
2023-03-10T00:46:33.555Z,23.70
2023-03-10T00:49:02.282Z,13.70
2023-03-10T00:51:30.638Z,20.80
2023-03-10T00:54:01.096Z,17.00
2023-03-10T00:56:30.238Z,20.00
2023-03-10T00:59:00.456Z,17.70
2023-03-10T01:01:33.195Z,16.10
2023-03-10T01:04:05.152Z,17.30
2023-03-10T01:06:34.077Z,16.00
2023-03-10T01:09:02.801Z,17.50
2023-03-10T01:11:31.753Z,19.00
2023-03-10T01:14:02.402Z,15.20
2023-03-10T01:18:59.045Z,15.60
2023-03-10T01:21:34.432Z,13.90
2023-03-10T01:24:04.472Z,12.70
2023-03-10T01:26:32.504Z,15.10
2023-03-10T01:29:00.522Z,13.80
2023-03-10T01:31:30.166Z,11.90
2023-03-10T01:34:08.985Z,13.50
2023-03-10T01:36:44.907Z,13.50
2023-03-10T01:39:15.360Z,16.50
2023-03-10T01:41:49.445Z,15.40
2023-03-10T01:44:32.617Z,18.30
2023-03-10T01:47:00.997Z,18.80
2023-03-10T01:49:38.709Z,16.70
2023-03-10T01:52:18.002Z,13.90
2023-03-10T01:55:01.053Z,13.80
2023-03-10T01:57:33.703Z,14.90
2023-03-10T02:00:02.891Z,12.80
2023-03-10T02:02:35.889Z,14.30
2023-03-10T02:05:04.315Z,13.00
2023-03-10T02:07:33.243Z,11.10
2023-03-10T02:10:02.675Z,12.30
2023-03-10T02:12:30.719Z,13.10
2023-03-10T02:15:00.775Z,13.40
2023-03-10T02:17:29.256Z,13.60
2023-03-10T02:20:29.158Z,11.80
2023-03-10T02:22:59.251Z,12.50
2023-03-10T02:26:00.125Z,10.00
2023-03-10T02:30:56.905Z,9.00
2023-03-10T02:33:28.942Z,11.20
2023-03-10T02:36:19.914Z,13.10
2023-03-10T02:38:48.231Z,14.00
2023-03-10T02:41:23.638Z,10.60
2023-03-10T02:43:53.175Z,11.70
2023-03-10T02:46:24.524Z,13.10
2023-03-10T02:48:52.680Z,9.90
2023-03-10T02:51:30.271Z,10.10
2023-03-10T02:54:01.193Z,9.70
2023-03-10T02:56:32.362Z,12.70
2023-03-10T02:59:01.442Z,9.90
2023-03-10T03:01:30.665Z,10.00
2023-03-10T03:04:00.270Z,10.80
2023-03-10T03:06:29.140Z,11.90
2023-03-10T03:08:57.333Z,10.00
2023-03-10T03:11:26.714Z,14.00
2023-03-10T03:13:54.892Z,11.70
2023-03-10T03:16:23.843Z,9.30
2023-03-10T03:18:54.397Z,13.20
2023-03-10T03:21:22.831Z,10.20
2023-03-10T03:23:50.805Z,12.00
2023-03-10T03:26:22.797Z,14.30
2023-03-10T03:28:53.337Z,10.30
2023-03-10T03:31:26.183Z,8.30
2023-03-10T03:34:01.926Z,8.00
2023-03-10T03:36:30.975Z,10.20
2023-03-10T03:38:59.049Z,15.10
2023-03-10T03:41:29.081Z,8.40
2023-03-10T03:43:57.328Z,11.50
2023-03-10T03:46:25.804Z,11.20
2023-03-10T03:48:54.243Z,11.90
2023-03-10T03:51:22.167Z,11.70
2023-03-10T03:53:50.456Z,12.10
2023-03-10T03:56:19.113Z,12.70
2023-03-10T03:58:47.208Z,8.70
2023-03-10T04:01:15.874Z,11.00
2023-03-10T04:03:47.805Z,10.30
2023-03-10T04:06:16.704Z,13.30
2023-03-10T04:08:45.309Z,13.40
2023-03-10T04:11:14.654Z,15.20
2023-03-10T04:13:46.318Z,10.80
2023-03-10T04:16:15.357Z,9.10
2023-03-10T04:18:44.852Z,8.20
2023-03-10T04:21:14.630Z,8.00
2023-03-10T04:23:43.819Z,8.70
2023-03-10T04:26:14.130Z,9.20
2023-03-10T04:28:42.398Z,6.70
2023-03-10T04:31:16.706Z,8.30
2023-03-10T04:33:46.618Z,8.30
2023-03-10T04:36:14.951Z,9.40
2023-03-10T04:38:43.728Z,7.10
2023-03-10T04:41:12.261Z,8.70
2023-03-10T04:43:44.510Z,10.70
2023-03-10T04:46:14.039Z,8.00
2023-03-10T04:48:42.818Z,9.40
2023-03-10T04:51:13.027Z,9.40
2023-03-10T04:53:48.550Z,9.80
2023-03-10T04:56:17.531Z,9.00
2023-03-10T04:58:45.822Z,10.60
2023-03-10T05:01:15.610Z,13.90
2023-03-10T05:03:52.878Z,12.80
2023-03-10T05:06:22.030Z,13.90
2023-03-10T05:09:03.436Z,13.30
2023-03-10T05:11:32.689Z,17.60
2023-03-10T05:14:01.044Z,18.70
2023-03-10T05:16:29.845Z,15.80
2023-03-10T05:18:57.859Z,16.90
2023-03-10T05:21:28.301Z,15.50
2023-03-10T05:23:57.489Z,15.20
2023-03-10T05:26:25.770Z,11.60
2023-03-10T05:28:54.192Z,17.10
2023-03-10T05:31:28.674Z,23.40
2023-03-10T05:34:01.491Z,17.00
2023-03-10T05:36:30.269Z,10.30
2023-03-10T05:38:58.204Z,13.40
2023-03-10T05:41:26.853Z,19.60
2023-03-10T05:43:56.928Z,14.30
2023-03-10T05:46:25.395Z,13.70
2023-03-10T05:48:56.854Z,12.30
2023-03-10T05:51:25.000Z,13.50
2023-03-10T05:53:52.996Z,16.50
2023-03-10T05:56:25.022Z,12.80
2023-03-10T05:58:55.646Z,11.60
2023-03-10T06:01:28.449Z,13.40
2023-03-10T06:03:57.139Z,8.20
2023-03-10T06:06:25.264Z,8.50
2023-03-10T06:08:53.255Z,10.70
2023-03-10T06:11:21.375Z,13.10
2023-03-10T06:13:49.764Z,10.90
2023-03-10T06:16:17.898Z,10.30
2023-03-10T06:18:45.952Z,9.30
2023-03-10T06:21:15.233Z,11.20
2023-03-10T06:23:43.611Z,11.50
2023-03-10T06:26:14.444Z,11.30
2023-03-10T06:28:45.112Z,10.90
2023-03-10T06:33:44.061Z,8.40
2023-03-10T06:36:13.688Z,8.30
2023-03-10T06:38:42.261Z,7.40
2023-03-10T06:41:10.613Z,9.40
2023-03-10T06:43:39.441Z,10.10
2023-03-10T06:46:09.590Z,9.20
2023-03-10T06:48:39.192Z,8.60
2023-03-10T06:51:09.438Z,10.10
2023-03-10T06:53:37.723Z,8.70
2023-03-10T06:56:08.453Z,9.90
2023-03-10T06:58:37.477Z,8.90
2023-03-10T07:01:06.288Z,6.40
2023-03-10T07:03:36.246Z,7.20
2023-03-10T07:06:04.985Z,8.60
2023-03-10T07:08:32.828Z,7.70
2023-03-10T07:11:01.115Z,6.70
2023-03-10T07:13:29.052Z,15.10
2023-03-10T07:15:57.030Z,8.90
2023-03-10T07:18:28.075Z,13.20
2023-03-10T07:20:57.317Z,8.90
2023-03-10T07:23:25.758Z,7.60
2023-03-10T07:25:56.832Z,6.00
2023-03-10T07:28:26.285Z,8.80
2023-03-10T07:30:56.548Z,7.80
2023-03-10T07:33:24.856Z,7.40
2023-03-10T07:35:52.715Z,8.40
2023-03-10T07:38:21.035Z,6.70
2023-03-10T07:40:49.228Z,9.10
2023-03-10T07:43:17.298Z,8.80
2023-03-10T07:45:45.719Z,9.40
2023-03-10T07:48:14.062Z,9.10
2023-03-10T07:50:42.095Z,9.10
2023-03-10T07:53:09.949Z,8.20
2023-03-10T07:55:39.018Z,5.40
2023-03-10T07:58:06.941Z,7.30
2023-03-10T08:00:35.147Z,4.20
2023-03-10T08:03:03.418Z,4.10
2023-03-10T08:05:32.193Z,5.80
2023-03-10T08:08:00.114Z,6.50
2023-03-10T08:10:28.453Z,7.00
2023-03-10T08:12:56.524Z,5.40
2023-03-10T08:15:25.117Z,8.70
2023-03-10T08:17:53.467Z,5.50
2023-03-10T08:20:21.346Z,12.80
2023-03-10T08:22:49.287Z,4.60
2023-03-10T08:25:17.231Z,5.80
2023-03-10T08:27:45.336Z,7.30
2023-03-10T08:30:13.455Z,7.20
2023-03-10T08:32:41.937Z,9.10
2023-03-10T08:35:10.289Z,11.20
2023-03-10T08:37:38.676Z,8.90
2023-03-10T08:40:08.299Z,5.80
2023-03-10T08:42:37.046Z,6.80
2023-03-10T08:45:07.365Z,5.80
2023-03-10T08:47:37.009Z,7.70
2023-03-10T08:50:06.817Z,5.40
2023-03-10T08:52:34.877Z,6.80
2023-03-10T08:55:05.471Z,6.90
2023-03-10T09:00:02.374Z,6.70
2023-03-10T09:02:30.699Z,7.10
2023-03-10T09:04:58.857Z,5.60
2023-03-10T09:07:26.921Z,4.40
2023-03-10T09:09:55.269Z,2.90
2023-03-10T09:12:23.399Z,4.80
2023-03-10T09:14:51.423Z,3.60
2023-03-10T09:17:19.783Z,2.20
2023-03-10T09:19:47.970Z,3.00
2023-03-10T09:22:16.122Z,6.00
2023-03-10T09:24:44.549Z,3.80
2023-03-10T09:27:12.588Z,2.40
2023-03-10T09:29:43.333Z,4.50
2023-03-10T09:32:12.353Z,2.40
2023-03-10T09:34:41.136Z,3.10
2023-03-10T09:37:09.097Z,1.40
2023-03-10T09:39:37.290Z,3.60
2023-03-10T09:42:06.217Z,2.90
2023-03-10T09:44:43.688Z,10.30
2023-03-10T09:47:27.627Z,2.90
2023-03-10T09:50:16.378Z,3.20
2023-03-10T09:52:57.384Z,2.00
2023-03-10T09:55:47.451Z,2.60
2023-03-10T09:58:29.636Z,2.40
2023-03-10T10:00:59.272Z,3.00
2023-03-10T10:03:59.972Z,3.30
2023-03-10T10:06:32.584Z,3.70
2023-03-10T10:09:06.076Z,2.80
2023-03-10T10:11:36.854Z,1.80
2023-03-10T10:14:30.503Z,19.60
2023-03-10T10:17:09.887Z,2.00
2023-03-10T10:19:40.527Z,1.60
2023-03-10T10:25:09.606Z,1.80
2023-03-10T10:27:38.437Z,3.20
2023-03-10T10:30:26.567Z,7.70
2023-03-10T10:33:15.226Z,1.40
2023-03-10T10:36:01.723Z,4.40
2023-03-10T10:38:31.717Z,2.50
2023-03-10T10:43:42.068Z,1.60
2023-03-10T10:46:12.677Z,2.20
2023-03-10T10:48:46.939Z,4.30
2023-03-10T10:51:37.767Z,4.70
2023-03-10T10:54:41.724Z,2.60
2023-03-10T10:57:22.029Z,1.30
2023-03-10T10:59:50.124Z,1.30
2023-03-10T11:02:31.187Z,2.90
2023-03-10T11:05:21.594Z,1.90
2023-03-10T11:07:50.937Z,4.10
2023-03-10T11:10:23.677Z,1.40
2023-03-10T11:13:02.752Z,2.90
2023-03-10T11:15:37.952Z,3.50
2023-03-10T11:18:25.809Z,2.50
2023-03-10T11:20:59.459Z,1.40
2023-03-10T11:23:49.653Z,2.30
2023-03-10T11:26:34.823Z,1.50
2023-03-10T11:29:35.899Z,1.80
2023-03-10T11:32:22.216Z,2.10
2023-03-10T11:34:54.051Z,5.20
2023-03-10T11:37:32.071Z,7.70
2023-03-10T11:40:32.477Z,2.00
2023-03-10T11:43:08.476Z,4.20
2023-03-10T11:45:52.809Z,3.90
2023-03-10T11:48:49.689Z,1.80
2023-03-10T11:51:30.036Z,1.50
2023-03-10T11:54:01.301Z,1.50
2023-03-10T11:56:29.805Z,2.10
2023-03-10T11:59:06.535Z,2.90
2023-03-10T12:01:38.747Z,3.70
2023-03-10T12:04:06.557Z,3.20
2023-03-10T12:06:45.772Z,2.60
2023-03-10T12:09:26.265Z,4.00
2023-03-10T12:11:54.836Z,4.10
2023-03-10T12:14:25.228Z,6.90
2023-03-10T12:16:54.410Z,3.20
2023-03-10T12:19:22.356Z,3.50
2023-03-10T12:22:22.794Z,1.50
2023-03-10T12:24:53.488Z,3.40
2023-03-10T12:27:21.685Z,2.50
2023-03-10T12:29:49.733Z,3.00
2023-03-10T12:32:42.735Z,2.10
2023-03-10T12:35:35.080Z,3.80
2023-03-10T12:38:50.624Z,1.70
2023-03-10T12:41:27.857Z,9.10
2023-03-10T12:43:57.641Z,1.80
2023-03-10T12:46:39.609Z,2.00
2023-03-10T12:49:21.613Z,3.30
2023-03-10T12:51:59.408Z,2.90
2023-03-10T12:54:45.534Z,1.60
2023-03-10T12:57:32.531Z,5.50
2023-03-10T13:00:26.827Z,3.30
2023-03-10T13:03:07.820Z,1.80
2023-03-10T13:05:40.415Z,12.30
2023-03-10T13:08:25.519Z,3.80
2023-03-10T13:10:59.066Z,3.90
2023-03-10T13:13:38.542Z,8.20
2023-03-10T13:16:08.056Z,5.00
2023-03-10T13:18:36.144Z,5.60
2023-03-10T13:21:04.592Z,3.00
2023-03-10T13:23:35.677Z,2.80
2023-03-10T13:26:09.777Z,5.20
2023-03-10T13:28:38.957Z,3.40
2023-03-10T13:31:33.746Z,3.00
2023-03-10T13:34:20.500Z,2.40
2023-03-10T13:36:48.775Z,2.40
2023-03-10T13:39:25.574Z,7.20
2023-03-10T13:41:58.266Z,3.70
2023-03-10T13:44:27.765Z,3.30
2023-03-10T13:47:01.088Z,4.90
2023-03-10T13:49:33.596Z,3.50
2023-03-10T13:52:05.664Z,4.50
2023-03-10T13:54:38.854Z,3.50
2023-03-10T13:57:16.741Z,4.30
2023-03-10T13:59:44.991Z,3.70
2023-03-10T14:02:18.238Z,3.80
2023-03-10T14:04:50.960Z,3.50
2023-03-10T14:07:31.102Z,6.30
2023-03-10T14:10:05.125Z,5.40
2023-03-10T14:12:45.050Z,1.70
2023-03-10T14:15:19.246Z,3.10
2023-03-10T14:17:53.423Z,6.30
2023-03-10T14:20:43.582Z,2.90
2023-03-10T14:23:24.084Z,2.20
2023-03-10T14:25:54.398Z,3.90
2023-03-10T14:28:32.700Z,5.20
2023-03-10T14:31:02.862Z,2.70
2023-03-10T14:33:30.939Z,4.10
2023-03-10T14:35:59.265Z,7.50
2023-03-10T14:38:27.210Z,9.30
2023-03-10T14:40:55.775Z,8.30
2023-03-10T14:43:27.059Z,2.50
2023-03-10T14:45:57.551Z,5.80
2023-03-10T14:48:28.554Z,4.00
2023-03-10T14:50:57.149Z,4.00
2023-03-10T14:53:26.844Z,12.80
2023-03-10T14:55:57.343Z,4.80
2023-03-10T15:00:58.922Z,3.10
2023-03-10T15:03:27.553Z,3.60
2023-03-10T15:05:55.722Z,6.30
2023-03-10T15:08:23.740Z,2.30
2023-03-10T15:10:52.871Z,4.80
2023-03-10T15:13:24.160Z,3.60
2023-03-10T15:15:52.429Z,10.00
2023-03-10T15:18:22.788Z,4.40
2023-03-10T15:23:20.046Z,4.40
2023-03-10T15:25:48.393Z,6.50
2023-03-10T15:28:16.330Z,5.80
2023-03-10T15:30:44.693Z,5.10
2023-03-10T15:33:12.691Z,4.00
2023-03-10T15:35:41.618Z,4.70
2023-03-10T15:38:13.098Z,3.50
2023-03-10T15:40:41.403Z,2.40
2023-03-10T15:43:10.339Z,4.50
2023-03-10T15:45:41.545Z,5.10
2023-03-10T15:48:10.540Z,4.30
2023-03-10T15:50:44.058Z,3.80
2023-03-10T15:53:12.667Z,7.40
2023-03-10T15:55:41.749Z,5.10
2023-03-10T15:58:11.215Z,7.60
2023-03-10T16:00:39.448Z,6.80
2023-03-10T16:03:07.544Z,5.40
2023-03-10T16:05:37.202Z,6.50
2023-03-10T16:08:06.359Z,7.60
2023-03-10T16:10:38.620Z,4.20
2023-03-10T16:13:07.251Z,5.10
2023-03-10T16:15:39.781Z,4.40
2023-03-10T16:18:07.615Z,4.30
2023-03-10T16:20:35.702Z,4.60
2023-03-10T16:23:03.842Z,6.10
2023-03-10T16:25:31.793Z,5.50
2023-03-10T16:27:59.902Z,11.10
2023-03-10T16:30:28.082Z,8.80
2023-03-10T16:33:00.881Z,7.50
2023-03-10T16:35:30.137Z,7.50
2023-03-10T16:38:00.933Z,5.60
2023-03-10T16:40:28.902Z,6.80
2023-03-10T16:42:56.951Z,10.70
2023-03-10T16:45:25.085Z,6.00
2023-03-10T16:47:53.035Z,10.90
2023-03-10T16:50:20.981Z,6.00
2023-03-10T16:52:49.834Z,8.30
2023-03-10T16:55:20.233Z,7.60
2023-03-10T17:00:21.230Z,9.40
2023-03-10T17:02:50.023Z,12.70
2023-03-10T17:05:18.062Z,7.70
2023-03-10T17:07:55.215Z,8.50
2023-03-10T17:10:23.920Z,8.70
2023-03-10T17:12:52.165Z,7.50
2023-03-10T17:15:20.450Z,6.00
2023-03-10T17:17:48.443Z,13.20
2023-03-10T17:20:18.411Z,10.50
2023-03-10T17:22:47.005Z,7.40
2023-03-10T17:25:15.278Z,5.60
2023-03-10T17:27:43.761Z,6.30
2023-03-10T17:30:13.216Z,9.80
2023-03-10T17:32:41.870Z,8.70
2023-03-10T17:35:10.087Z,18.10
2023-03-10T17:37:38.928Z,8.80
2023-03-10T17:40:09.614Z,10.30
2023-03-10T17:42:37.476Z,7.40
2023-03-10T17:45:06.980Z,14.90
2023-03-10T17:47:35.566Z,9.90
2023-03-10T17:50:03.981Z,20.80
2023-03-10T17:52:31.953Z,8.30
2023-03-10T17:55:00.362Z,9.00
2023-03-10T17:57:28.603Z,8.60
2023-03-10T17:59:56.683Z,14.20
2023-03-10T18:02:24.730Z,10.90
2023-03-10T18:04:52.867Z,17.90
2023-03-10T18:07:21.144Z,9.00
2023-03-10T18:09:49.225Z,6.30
2023-03-10T18:12:17.236Z,4.70
2023-03-10T18:14:46.449Z,9.60
2023-03-10T18:17:14.811Z,7.90
2023-03-10T18:19:42.849Z,4.80
2023-03-10T18:22:10.710Z,6.90
2023-03-10T18:24:38.937Z,3.90
2023-03-10T18:27:07.223Z,3.80
2023-03-10T18:29:35.144Z,4.30
2023-03-10T18:32:03.530Z,3.60
2023-03-10T18:34:31.467Z,3.80
2023-03-10T18:36:59.623Z,5.00
2023-03-10T18:39:27.506Z,7.90
2023-03-10T18:41:55.640Z,2.90
2023-03-10T18:44:23.943Z,3.60
2023-03-10T18:46:52.079Z,2.90
2023-03-10T18:49:20.384Z,6.00
2023-03-10T18:51:48.716Z,3.30
2023-03-10T18:54:16.801Z,4.90
2023-03-10T18:56:44.693Z,2.50
2023-03-10T18:59:13.274Z,3.10
2023-03-10T19:01:41.538Z,1.80
2023-03-10T19:04:09.463Z,4.50
2023-03-10T19:06:37.731Z,3.50
2023-03-10T19:09:08.753Z,3.90
2023-03-10T19:11:37.901Z,2.70
2023-03-10T19:14:07.251Z,2.50
2023-03-10T19:16:35.727Z,3.70
2023-03-10T19:19:03.956Z,4.40
2023-03-10T19:21:34.826Z,3.60
2023-03-10T19:24:04.080Z,7.60
2023-03-10T19:26:33.337Z,6.10
2023-03-10T19:29:04.255Z,7.60
2023-03-10T19:31:32.508Z,5.60
2023-03-10T19:34:00.445Z,5.80
2023-03-10T19:36:29.791Z,7.00
2023-03-10T19:38:57.815Z,6.00
2023-03-10T19:41:25.745Z,7.80
2023-03-10T19:43:55.046Z,4.90
2023-03-10T19:46:23.236Z,9.30
2023-03-10T19:48:51.257Z,5.70
2023-03-10T19:51:25.121Z,6.00
2023-03-10T19:53:54.864Z,7.30
2023-03-10T19:56:25.948Z,7.90
2023-03-10T19:58:53.938Z,8.50
2023-03-10T20:01:25.014Z,9.30
2023-03-10T20:03:56.769Z,7.00
2023-03-10T20:06:25.008Z,7.40
2023-03-10T20:08:53.763Z,5.20
2023-03-10T20:11:22.258Z,7.20
2023-03-10T20:13:52.887Z,6.70
2023-03-10T20:16:24.118Z,5.10
2023-03-10T20:18:52.207Z,6.20
2023-03-10T20:21:20.470Z,4.90
2023-03-10T20:23:48.641Z,7.60
2023-03-10T20:26:17.672Z,6.80
2023-03-10T20:28:48.250Z,10.50
2023-03-10T20:31:22.704Z,8.30
2023-03-10T20:33:50.676Z,11.30
2023-03-10T20:36:18.663Z,9.50
2023-03-10T20:38:47.506Z,12.70
2023-03-10T20:41:17.371Z,12.70
2023-03-10T20:43:45.992Z,10.00
2023-03-10T20:46:14.520Z,8.50
2023-03-10T20:48:43.617Z,17.60
2023-03-10T20:51:14.903Z,6.10
2023-03-10T20:53:43.026Z,8.90
2023-03-10T20:56:12.292Z,7.30
2023-03-10T20:58:40.660Z,8.60
2023-03-10T21:01:15.695Z,7.80
2023-03-10T21:03:43.730Z,7.60
2023-03-10T21:06:12.037Z,9.20
2023-03-10T21:08:39.946Z,14.70
2023-03-10T21:11:07.809Z,16.80
2023-03-10T21:13:35.832Z,15.60
2023-03-10T21:16:04.479Z,14.50
2023-03-10T21:18:33.153Z,16.80
2023-03-10T21:21:07.131Z,18.40
2023-03-10T21:23:43.109Z,21.70
2023-03-10T21:26:12.282Z,17.30
2023-03-10T21:28:41.268Z,18.30
2023-03-10T21:31:09.535Z,22.40
2023-03-10T21:33:38.606Z,18.20
2023-03-10T21:36:07.903Z,22.20
2023-03-10T21:38:37.680Z,29.60
2023-03-10T21:41:06.204Z,30.00
2023-03-10T21:43:34.602Z,29.10
2023-03-10T21:46:02.766Z,32.20
2023-03-10T21:48:31.015Z,27.40
2023-03-10T21:50:59.550Z,29.80
2023-03-10T21:53:27.728Z,24.10
2023-03-10T21:55:56.107Z,20.30
2023-03-10T21:58:24.970Z,21.20
2023-03-10T22:00:55.982Z,21.70
2023-03-10T22:03:24.278Z,14.80
2023-03-10T22:05:52.573Z,19.30
2023-03-10T22:08:22.184Z,19.80
2023-03-10T22:10:50.065Z,16.80
2023-03-10T22:13:18.273Z,19.00
2023-03-10T22:15:46.152Z,19.90
2023-03-10T22:18:14.461Z,25.80
2023-03-10T22:20:42.499Z,25.70
2023-03-10T22:23:10.607Z,13.50
2023-03-10T22:25:39.038Z,12.30
2023-03-10T22:28:07.041Z,14.30
2023-03-10T22:30:35.454Z,15.20
2023-03-10T22:33:03.791Z,12.50
2023-03-10T22:35:31.972Z,14.50
2023-03-10T22:38:00.217Z,12.70
2023-03-10T22:40:29.096Z,13.00
2023-03-10T22:42:57.411Z,11.30
2023-03-10T22:45:27.113Z,12.00
2023-03-10T22:48:01.811Z,14.10
2023-03-10T22:50:33.794Z,16.00
2023-03-10T22:53:04.692Z,10.50
2023-03-10T22:55:35.670Z,9.50
2023-03-10T22:58:05.450Z,6.60
2023-03-10T23:00:34.453Z,6.60
2023-03-10T23:03:04.894Z,3.30
2023-03-10T23:05:33.531Z,4.10
2023-03-10T23:08:01.466Z,2.40
2023-03-10T23:10:32.417Z,2.30
2023-03-10T23:13:02.937Z,2.10
2023-03-10T23:15:34.521Z,1.90
2023-03-10T23:18:03.296Z,2.00
2023-03-10T23:20:49.084Z,2.50
2023-03-10T23:23:18.418Z,1.90
2023-03-10T23:25:48.781Z,1.70
2023-03-10T23:28:18.374Z,1.90
2023-03-10T23:30:48.732Z,1.60
2023-03-10T23:33:22.736Z,3.90
2023-03-10T23:35:53.921Z,1.80
2023-03-10T23:38:24.139Z,1.80
2023-03-10T23:40:53.793Z,1.70
2023-03-10T23:43:22.438Z,1.90
2023-03-10T23:45:50.761Z,2.30
2023-03-10T23:48:19.987Z,2.60
2023-03-10T23:50:48.966Z,2.80
2023-03-10T23:53:20.722Z,3.80
2023-03-10T23:55:49.170Z,4.40
2023-03-10T23:58:19.248Z,4.30
